Time;durP1;ratioP1;P1;durP2;ratioP2;P2;SDS_P1;SDS_P2;PMS_P1;PMS_P2;Temp;Humidity;BMP_temperature;BMP_pressure;BME280_temperature;BME280_humidity;BME280_pressure;Samples;Min_cycle;Max_cycle;Signal;HPM_P1;HPM_P2
2021/01/02 00:02:08;;;;;;;4.40;2.30;;;3.30;99.90;;;;;;5096657;28;20747;-60
2021/01/02 00:05:05;;;;;;;3.90;2.40;;;3.40;99.90;;;;;;5096594;28;20472;-60
2021/01/02 00:08:17;;;;;;;5.30;2.88;;;3.40;99.90;;;;;;5095145;28;20520;-60
2021/01/02 00:11:23;;;;;;;4.97;2.55;;;3.50;99.90;;;;;;5095378;28;20445;-62
2021/01/02 00:14:08;;;;;;;4.60;2.50;;;3.50;99.90;;;;;;5047547;28;20518;-61
2021/01/02 00:17:02;;;;;;;5.32;3.00;;;3.50;99.90;;;;;;5076209;28;20526;-60
2021/01/02 00:19:57;;;;;;;4.78;2.30;;;3.50;99.90;;;;;;5075842;28;20851;-59
2021/01/02 00:22:35;;;;;;;4.80;2.08;;;3.60;99.90;;;;;;5075926;28;20522;-61
2021/01/02 00:25:05;;;;;;;4.90;2.50;;;3.70;99.90;;;;;;5074560;28;20433;-61
2021/01/02 00:27:54;;;;;;;4.15;2.58;;;3.80;99.90;;;;;;5074880;28;20749;-61
2021/01/02 00:30:46;;;;;;;4.40;2.00;;;3.80;99.90;;;;;;5075256;28;20510;-60
2021/01/02 00:33:19;;;;;;;5.65;2.50;;;3.80;99.90;;;;;;5075462;28;20856;-60
2021/01/02 00:35:48;;;;;;;5.30;1.90;;;3.70;99.90;;;;;;5076820;28;20781;-60
2021/01/02 00:38:17;;;;;;;5.00;2.58;;;3.70;99.90;;;;;;5075914;28;20492;-60
2021/01/02 00:40:44;;;;;;;2.42;1.25;;;3.60;99.90;;;;;;5075646;28;20510;-60
2021/01/02 00:43:11;;;;;;;2.83;1.60;;;3.80;99.90;;;;;;5075707;28;20518;-61
2021/01/02 00:45:37;;;;;;;3.95;1.70;;;3.80;99.90;;;;;;5075853;28;20815;-60
2021/01/02 00:48:06;;;;;;;3.13;1.88;;;3.70;99.90;;;;;;5075395;28;20419;-60
2021/01/02 00:50:33;;;;;;;4.50;1.58;;;3.60;99.90;;;;;;5074677;28;20847;-60
2021/01/02 00:53:14;;;;;;;4.05;1.40;;;3.50;99.90;;;;;;5075885;28;20504;-61
2021/01/02 00:55:59;;;;;;;2.90;1.50;;;3.60;99.90;;;;;;5076121;28;20430;-60
2021/01/02 00:58:36;;;;;;;2.25;1.23;;;3.60;99.90;;;;;;5074869;28;20854;-60
2021/01/02 01:01:05;;;;;;;3.00;1.40;;;3.30;99.90;;;;;;5075010;28;20423;-60
2021/01/02 01:04:01;;;;;;;3.42;1.60;;;3.10;99.90;;;;;;5074737;28;20530;-60
2021/01/02 01:06:30;;;;;;;3.53;1.40;;;3.20;99.90;;;;;;5060501;28;20852;-60
2021/01/02 01:09:05;;;;;;;3.20;1.70;;;3.30;99.90;;;;;;5074370;28;20799;-61
2021/01/02 01:11:36;;;;;;;2.90;1.50;;;3.50;99.90;;;;;;5075966;28;20523;-61
2021/01/02 01:14:04;;;;;;;4.53;1.98;;;3.60;99.90;;;;;;5094280;28;20520;-61
2021/01/02 01:16:40;;;;;;;4.15;1.80;;;3.50;99.90;;;;;;5096161;28;20425;-61
2021/01/02 01:19:11;;;;;;;4.25;1.95;;;3.50;99.90;;;;;;5096362;28;20451;-61
2021/01/02 01:21:44;;;;;;;4.07;1.65;;;3.40;99.90;;;;;;5096103;28;20707;-61
2021/01/02 01:24:13;;;;;;;4.25;1.90;;;3.30;99.90;;;;;;5095614;28;20426;-61
2021/01/02 01:27:14;;;;;;;4.80;1.80;;;3.20;99.90;;;;;;5094318;28;20709;-61
2021/01/02 01:29:56;;;;;;;3.43;1.80;;;3.10;99.90;;;;;;5096355;28;20939;-61
2021/01/02 01:32:25;;;;;;;5.57;1.80;;;2.90;99.90;;;;;;5094005;28;20724;-60
2021/01/02 01:34:59;;;;;;;4.50;2.40;;;2.80;99.90;;;;;;5095928;28;20584;-60
2021/01/02 01:37:29;;;;;;;5.22;2.70;;;2.70;99.90;;;;;;5095734;28;20477;-60
2021/01/02 01:39:56;;;;;;;4.33;2.20;;;2.70;99.90;;;;;;5095942;28;20430;-60
2021/01/02 01:42:41;;;;;;;5.57;2.20;;;2.70;99.90;;;;;;5096187;28;20429;-62
2021/01/02 01:45:26;;;;;;;4.35;2.33;;;2.70;99.90;;;;;;5095360;28;20498;-60
2021/01/02 01:48:05;;;;;;;5.80;2.30;;;2.90;99.90;;;;;;5094628;28;20461;-61
2021/01/02 01:50:47;;;;;;;5.55;2.20;;;3.00;99.90;;;;;;5095827;28;20520;-61
2021/01/02 01:53:43;;;;;;;5.13;2.40;;;3.10;99.90;;;;;;5094444;28;20421;-61
2021/01/02 01:56:16;;;;;;;5.25;2.88;;;3.10;99.90;;;;;;5095027;28;20714;-61
2021/01/02 01:59:30;;;;;;;5.90;3.17;;;3.00;99.90;;;;;;5094937;28;20425;-61
2021/01/02 02:01:57;;;;;;;8.57;4.50;;;3.00;99.90;;;;;;5093352;28;20456;-61
2021/01/02 02:04:51;;;;;;;5.40;3.80;;;2.80;99.90;;;;;;5093936;28;20637;-61
2021/01/02 02:07:20;;;;;;;9.43;4.65;;;2.60;99.90;;;;;;5092677;28;20430;-61
2021/01/02 02:10:00;;;;;;;5.85;3.35;;;2.50;99.90;;;;;;5092186;28;20709;-61
2021/01/02 02:12:33;;;;;;;6.75;4.20;;;2.60;99.90;;;;;;5094075;28;20909;-61
2021/01/02 02:15:11;;;;;;;7.40;3.92;;;2.70;99.90;;;;;;5093551;28;20433;-61
2021/01/02 02:17:44;;;;;;;7.05;3.22;;;2.70;99.90;;;;;;5093718;28;20463;-61
2021/01/02 02:20:13;;;;;;;5.53;3.60;;;2.80;99.90;;;;;;5094265;28;20530;-61
2021/01/02 02:22:41;;;;;;;6.15;3.38;;;3.10;99.90;;;;;;5087376;28;20505;-59
2021/01/02 02:25:11;;;;;;;5.68;3.38;;;3.40;99.90;;;;;;5094264;28;20783;-59
2021/01/02 02:27:41;;;;;;;5.93;3.47;;;3.40;99.90;;;;;;5093781;28;20426;-59
2021/01/02 02:30:13;;;;;;;5.43;3.10;;;3.40;99.90;;;;;;5095122;28;20472;-59
2021/01/02 02:32:42;;;;;;;6.18;2.80;;;3.40;99.90;;;;;;5095988;28;20527;-59
2021/01/02 02:35:12;;;;;;;5.13;2.60;;;3.40;99.90;;;;;;5094875;28;20481;-60
2021/01/02 02:37:45;;;;;;;5.60;2.80;;;3.30;99.90;;;;;;5094476;28;20465;-59
2021/01/02 02:40:17;;;;;;;5.50;2.60;;;3.10;99.90;;;;;;5095196;28;20848;-59
2021/01/02 02:42:50;;;;;;;5.18;2.55;;;2.80;99.90;;;;;;5094935;28;20869;-61
2021/01/02 02:45:20;;;;;;;6.43;2.40;;;2.90;99.90;;;;;;5094082;28;20833;-59
2021/01/02 02:47:49;;;;;;;7.43;3.70;;;3.00;99.90;;;;;;5093748;28;20433;-60
2021/01/02 02:50:21;;;;;;;4.18;2.67;;;2.90;99.90;;;;;;5093379;28;20457;-60
2021/01/02 02:53:02;;;;;;;7.80;3.78;;;2.80;99.90;;;;;;5092860;28;20422;-60
2021/01/02 02:55:29;;;;;;;6.82;4.18;;;2.90;99.90;;;;;;5092901;28;20686;-60
2021/01/02 02:57:56;;;;;;;5.75;3.35;;;2.90;99.90;;;;;;5092840;28;20437;-60
2021/01/02 03:00:24;;;;;;;5.15;3.53;;;3.00;99.90;;;;;;5093297;28;20426;-59
2021/01/02 03:02:51;;;;;;;7.43;4.40;;;2.90;99.90;;;;;;5093778;28;20520;-60
2021/01/02 03:05:18;;;;;;;6.07;3.80;;;2.90;99.90;;;;;;5093107;28;20424;-60
2021/01/02 03:07:47;;;;;;;9.40;5.40;;;2.80;99.90;;;;;;5094442;28;20474;-60
2021/01/02 03:10:15;;;;;;;8.30;4.57;;;2.60;99.90;;;;;;5094253;28;20430;-60
2021/01/02 03:12:46;;;;;;;8.82;4.20;;;2.50;99.90;;;;;;5093598;28;20480;-60
2021/01/02 03:15:14;;;;;;;8.32;5.10;;;2.50;99.90;;;;;;5093656;28;20429;-61
2021/01/02 03:17:43;;;;;;;6.25;3.90;;;2.50;99.90;;;;;;5093891;28;20815;-60
2021/01/02 03:20:11;;;;;;;7.65;4.10;;;2.60;99.90;;;;;;5093308;28;20449;-60
2021/01/02 03:22:41;;;;;;;6.03;4.03;;;2.50;99.90;;;;;;5092862;28;20821;-60
2021/01/02 03:25:10;;;;;;;7.38;4.32;;;2.50;99.90;;;;;;5093232;28;20931;-59
2021/01/02 03:27:38;;;;;;;6.60;3.83;;;2.50;99.90;;;;;;5092954;28;20525;-59
2021/01/02 03:30:08;;;;;;;8.05;4.47;;;2.40;99.90;;;;;;5094067;28;20429;-59
2021/01/02 03:32:35;;;;;;;6.68;3.78;;;2.70;99.90;;;;;;5096167;28;20425;-59
2021/01/02 03:35:05;;;;;;;8.32;4.38;;;3.00;99.90;;;;;;5098679;28;20414;-60
2021/01/02 03:37:34;;;;;;;7.22;3.90;;;3.10;99.90;;;;;;5098274;28;20438;-60
2021/01/02 03:40:00;;;;;;;6.60;4.10;;;3.20;99.90;;;;;;5098186;28;20432;-60
2021/01/02 03:42:27;;;;;;;6.13;4.30;;;3.30;99.90;;;;;;5098315;28;20516;-60
2021/01/02 03:44:54;;;;;;;7.87;4.67;;;3.20;99.90;;;;;;5096958;28;20789;-60
2021/01/02 03:47:21;;;;;;;8.10;4.30;;;3.00;99.90;;;;;;5096782;28;20504;-60
2021/01/02 03:49:47;;;;;;;7.60;3.90;;;2.80;99.90;;;;;;5097205;28;20418;-60
2021/01/02 03:52:15;;;;;;;5.45;3.47;;;2.80;99.90;;;;;;5096799;28;20860;-60
2021/01/02 03:54:42;;;;;;;6.65;4.30;;;2.80;99.90;;;;;;5096887;28;20459;-60
2021/01/02 03:57:09;;;;;;;6.80;4.10;;;2.70;99.90;;;;;;5096777;28;20887;-60
2021/01/02 03:59:35;;;;;;;8.27;4.30;;;2.60;99.90;;;;;;5096490;28;20418;-60
2021/01/02 04:02:02;;;;;;;5.80;3.95;;;2.60;99.90;;;;;;5097137;28;20855;-60
2021/01/02 04:04:29;;;;;;;6.47;3.85;;;2.50;99.90;;;;;;5097866;28;20434;-60
2021/01/02 04:06:56;;;;;;;8.70;4.27;;;2.50;99.90;;;;;;5097484;28;20465;-60
2021/01/02 04:09:24;;;;;;;8.02;3.63;;;2.40;99.90;;;;;;5097269;28;20425;-60
2021/01/02 04:11:50;;;;;;;7.63;3.90;;;2.50;99.90;;;;;;5097811;28;20878;-60
2021/01/02 04:14:17;;;;;;;6.90;3.40;;;2.50;99.90;;;;;;5097338;28;20581;-59
2021/01/02 04:16:44;;;;;;;9.82;4.93;;;2.50;99.90;;;;;;5098092;28;20497;-60
2021/01/02 04:19:12;;;;;;;5.35;3.58;;;2.50;99.90;;;;;;5097533;28;20437;-60
2021/01/02 04:21:39;;;;;;;5.50;3.20;;;2.50;99.90;;;;;;5097513;28;20426;-60
2021/01/02 04:24:07;;;;;;;6.10;4.10;;;2.60;99.90;;;;;;5097259;28;20521;-60
2021/01/02 04:26:35;;;;;;;6.95;3.47;;;2.70;99.90;;;;;;5097477;28;20472;-60
2021/01/02 04:29:02;;;;;;;5.75;3.88;;;2.80;99.90;;;;;;5097428;28;20420;-60
2021/01/02 04:31:37;;;;;;;5.47;2.80;;;3.00;99.90;;;;;;5096686;28;20880;-60
2021/01/02 04:34:05;;;;;;;6.13;3.90;;;3.10;99.90;;;;;;5097465;28;20796;-60
2021/01/02 04:36:32;;;;;;;4.95;3.05;;;2.90;99.90;;;;;;5097382;28;20456;-60
2021/01/02 04:38:59;;;;;;;4.55;3.47;;;2.90;99.90;;;;;;5096984;28;20480;-60
2021/01/02 04:41:25;;;;;;;5.90;3.45;;;2.90;99.90;;;;;;5096274;28;20506;-59
2021/01/02 04:43:54;;;;;;;6.60;3.83;;;2.80;99.90;;;;;;5096587;28;20513;-59
2021/01/02 04:46:23;;;;;;;6.00;3.90;;;2.80;99.90;;;;;;5097301;28;20502;-60
2021/01/02 04:48:50;;;;;;;6.90;3.47;;;2.60;99.90;;;;;;5097397;28;20445;-61
2021/01/02 04:51:18;;;;;;;6.97;4.45;;;2.40;99.90;;;;;;5096278;28;20519;-59
2021/01/02 04:53:46;;;;;;;5.97;3.87;;;2.10;99.90;;;;;;5097174;28;20533;-59
2021/01/02 04:56:13;;;;;;;6.65;3.40;;;2.10;99.90;;;;;;5096830;28;20414;-60
2021/01/02 04:58:42;;;;;;;6.40;3.70;;;2.00;99.90;;;;;;5096970;28;20709;-60
2021/01/02 05:01:11;;;;;;;6.13;3.60;;;2.10;99.90;;;;;;5097262;28;20519;-60
2021/01/02 05:03:44;;;;;;;7.47;3.70;;;1.90;99.90;;;;;;5096503;28;20558;-60
2021/01/02 05:06:11;;;;;;;7.38;3.80;;;1.70;99.90;;;;;;5096522;28;20525;-59
2021/01/02 05:08:39;;;;;;;8.40;4.20;;;1.70;99.90;;;;;;5095940;28;20425;-59
2021/01/02 05:11:07;;;;;;;8.23;4.50;;;1.80;99.90;;;;;;5096731;28;20426;-60
2021/01/02 05:13:35;;;;;;;8.30;3.65;;;1.90;99.90;;;;;;5096803;28;20426;-60
2021/01/02 05:16:17;;;;;;;7.40;4.00;;;1.90;99.90;;;;;;5096880;28;20522;-60
2021/01/02 05:18:55;;;;;;;8.07;4.50;;;1.80;99.90;;;;;;5096531;28;20857;-60
2021/01/02 05:21:22;;;;;;;7.93;4.13;;;1.70;99.90;;;;;;5096170;28;20575;-60
2021/01/02 05:24:06;;;;;;;8.50;4.30;;;1.70;99.90;;;;;;5096476;28;20487;-59
2021/01/02 05:26:34;;;;;;;7.90;4.28;;;1.70;99.90;;;;;;5095945;28;20902;-59
2021/01/02 05:29:20;;;;;;;7.03;4.10;;;1.70;99.90;;;;;;5096577;28;20414;-60
2021/01/02 05:31:50;;;;;;;8.30;4.72;;;1.60;99.90;;;;;;5095993;28;20467;-60
2021/01/02 05:34:18;;;;;;;8.82;4.15;;;1.50;99.90;;;;;;5096305;28;20520;-60
2021/01/02 05:36:46;;;;;;;7.68;3.70;;;1.60;99.90;;;;;;5096079;28;20429;-59
2021/01/02 05:39:17;;;;;;;7.38;4.45;;;1.60;99.90;;;;;;5095628;28;20797;-59
2021/01/02 05:41:49;;;;;;;10.60;4.40;;;1.80;99.90;;;;;;5095597;28;20425;-60
2021/01/02 05:44:16;;;;;;;9.00;4.65;;;1.90;99.90;;;;;;5095359;28;20508;-59
2021/01/02 05:46:49;;;;;;;9.02;4.28;;;2.10;99.90;;;;;;5095884;28;20510;-60
2021/01/02 05:49:32;;;;;;;7.07;4.13;;;2.20;99.90;;;;;;5096528;28;20461;-59
2021/01/02 05:52:00;;;;;;;9.25;4.65;;;2.20;99.90;;;;;;5095460;28;20736;-59
2021/01/02 05:54:29;;;;;;;7.90;4.20;;;2.20;99.90;;;;;;5093917;28;20493;-59
2021/01/02 05:56:57;;;;;;;8.80;4.15;;;2.40;99.90;;;;;;5094510;28;20523;-59
2021/01/02 05:59:31;;;;;;;9.70;4.60;;;2.50;99.90;;;;;;5095604;28;20430;-60
2021/01/02 06:02:17;;;;;;;7.00;4.00;;;2.50;99.90;;;;;;5095609;28;20418;-59
2021/01/02 06:04:54;;;;;;;11.35;4.97;;;2.50;99.90;;;;;;5095374;28;20406;-60
2021/01/02 06:07:22;;;;;;;8.70;4.65;;;2.50;99.90;;;;;;5095884;28;20525;-60
2021/01/02 06:09:49;;;;;;;11.95;6.00;;;2.60;99.90;;;;;;5094911;28;20582;-60
2021/01/02 06:12:26;;;;;;;11.55;4.47;;;2.60;99.90;;;;;;5095019;28;20782;-60
2021/01/02 06:14:54;;;;;;;9.20;4.20;;;2.30;99.90;;;;;;5094653;28;20942;-60
2021/01/02 06:17:29;;;;;;;11.85;5.85;;;2.20;99.90;;;;;;5094469;28;20417;-60
2021/01/02 06:19:58;;;;;;;10.68;5.28;;;2.10;99.90;;;;;;5095131;28;20508;-60
2021/01/02 06:22:24;;;;;;;10.57;5.25;;;2.10;99.90;;;;;;5094710;28;20922;-60
2021/01/02 06:24:52;;;;;;;12.85;6.05;;;2.00;99.90;;;;;;5095501;28;20520;-59
2021/01/02 06:27:19;;;;;;;10.70;4.90;;;1.80;99.90;;;;;;5095351;28;20453;-60
2021/01/02 06:29:53;;;;;;;10.98;5.18;;;2.00;99.90;;;;;;5095517;28;20422;-60
2021/01/02 06:32:21;;;;;;;12.88;6.15;;;2.10;99.90;;;;;;5094876;28;20524;-60
2021/01/02 06:35:19;;;;;;;12.37;6.30;;;2.20;99.90;;;;;;5094924;28;20853;-60
2021/01/02 06:38:05;;;;;;;11.60;5.43;;;2.10;99.90;;;;;;5095085;28;20837;-60
2021/01/02 06:40:37;;;;;;;10.02;5.78;;;2.30;99.90;;;;;;5095502;28;20435;-60
2021/01/02 06:43:06;;;;;;;9.67;4.80;;;2.40;99.90;;;;;;5093443;28;20848;-60
2021/01/02 06:45:53;;;;;;;11.52;5.10;;;2.50;99.90;;;;;;5092997;28;20698;-59
2021/01/02 06:48:47;;;;;;;12.10;5.00;;;2.60;99.90;;;;;;5092611;28;20482;-59
2021/01/02 06:51:31;;;;;;;12.73;5.90;;;2.60;99.90;;;;;;5037694;28;20526;-60
2021/01/02 06:54:00;;;;;;;11.43;5.20;;;2.60;99.90;;;;;;5089137;28;20440;-60
2021/01/02 06:56:35;;;;;;;10.93;4.90;;;2.60;99.90;;;;;;5079508;28;20718;-59
2021/01/02 06:59:02;;;;;;;11.48;5.07;;;2.70;99.90;;;;;;5089983;28;20422;-60
2021/01/02 07:01:40;;;;;;;10.10;4.85;;;2.60;99.90;;;;;;5094098;28;20509;-59
2021/01/02 07:04:08;;;;;;;14.95;5.93;;;2.50;99.90;;;;;;5094359;28;20425;-59
2021/01/02 07:06:43;;;;;;;11.60;5.00;;;2.40;99.90;;;;;;5094149;28;20501;-59
2021/01/02 07:09:26;;;;;;;10.70;5.20;;;2.40;99.90;;;;;;5094907;28;20725;-59
2021/01/02 07:12:14;;;;;;;14.43;5.70;;;2.30;99.90;;;;;;5094114;28;20789;-59
2021/01/02 07:14:41;;;;;;;11.95;5.40;;;2.30;99.90;;;;;;5073432;28;20431;-59
2021/01/02 07:17:10;;;;;;;11.30;5.47;;;2.30;99.90;;;;;;5073178;28;20423;-59
2021/01/02 07:19:50;;;;;;;11.47;5.13;;;2.40;99.90;;;;;;5063885;28;20439;-59
2021/01/02 07:22:29;;;;;;;13.80;5.40;;;2.40;99.90;;;;;;5053098;28;20509;-58
2021/01/02 07:25:00;;;;;;;13.00;5.57;;;2.40;99.90;;;;;;5068676;28;20423;-59
2021/01/02 07:27:30;;;;;;;11.55;5.18;;;2.20;99.90;;;;;;5072482;28;20488;-59
2021/01/02 07:29:59;;;;;;;12.23;5.75;;;2.00;99.90;;;;;;5070105;28;20435;-59
2021/01/02 07:32:27;;;;;;;13.05;5.43;;;1.90;99.90;;;;;;5072610;28;20846;-59
2021/01/02 07:34:56;;;;;;;16.00;5.97;;;1.90;99.90;;;;;;5073454;28;20420;-59
2021/01/02 07:37:24;;;;;;;10.45;5.03;;;2.20;99.90;;;;;;5073021;28;20771;-59
2021/01/02 07:39:56;;;;;;;13.73;5.10;;;2.10;99.90;;;;;;5072218;28;20814;-59
2021/01/02 07:42:25;;;;;;;11.30;5.22;;;2.00;99.90;;;;;;5073233;28;20430;-60
2021/01/02 07:45:00;;;;;;;10.20;4.40;;;2.00;99.90;;;;;;5071858;28;20757;-59
2021/01/02 07:47:27;;;;;;;12.00;4.93;;;1.90;99.90;;;;;;5072849;28;20427;-59
2021/01/02 07:50:08;;;;;;;10.90;4.63;;;1.90;99.90;;;;;;5072625;28;20843;-60
2021/01/02 07:52:34;;;;;;;10.13;4.57;;;2.00;99.90;;;;;;5072176;28;20434;-60
2021/01/02 07:55:11;;;;;;;10.20;4.82;;;2.10;99.90;;;;;;5072652;28;20436;-60
2021/01/02 07:57:38;;;;;;;12.55;6.18;;;2.10;99.90;;;;;;5064976;28;20551;-60
2021/01/02 08:00:07;;;;;;;10.67;5.00;;;2.50;99.90;;;;;;5073137;28;20742;-60
2021/01/02 08:02:39;;;;;;;8.82;4.55;;;2.60;99.90;;;;;;5070801;28;20439;-60
2021/01/02 08:05:09;;;;;;;12.48;5.00;;;2.60;99.90;;;;;;5070885;28;20429;-60
2021/01/02 08:07:38;;;;;;;9.30;4.72;;;2.90;99.90;;;;;;5072887;28;20506;-61
2021/01/02 08:10:09;;;;;;;12.33;5.23;;;3.40;99.90;;;;;;5072751;28;20467;-59
2021/01/02 08:12:36;;;;;;;9.02;4.45;;;3.60;99.90;;;;;;5068636;28;20460;-61
2021/01/02 08:15:05;;;;;;;16.33;7.22;;;3.60;99.90;;;;;;5091731;28;20453;-62
2021/01/02 08:17:41;;;;;;;10.93;4.75;;;3.60;99.90;;;;;;5091795;28;20518;-63
2021/01/02 08:20:09;;;;;;;9.77;4.60;;;3.40;99.90;;;;;;5075809;28;20498;-62
2021/01/02 08:22:37;;;;;;;10.48;5.13;;;3.40;99.90;;;;;;5096037;28;20824;-61
2021/01/02 08:25:06;;;;;;;11.95;4.70;;;3.50;99.90;;;;;;5096371;28;20867;-62
2021/01/02 08:27:35;;;;;;;17.40;9.27;;;3.60;99.90;;;;;;5080976;28;20772;-62
2021/01/02 08:30:06;;;;;;;11.93;5.60;;;3.50;99.90;;;;;;5078533;28;20427;-63
2021/01/02 08:32:35;;;;;;;10.97;5.43;;;3.50;99.90;;;;;;5087001;28;20520;-63
2021/01/02 08:35:02;;;;;;;9.30;4.50;;;3.40;99.90;;;;;;5095166;28;20556;-63
2021/01/02 08:37:29;;;;;;;13.15;4.82;;;3.50;99.90;;;;;;5097435;28;20514;-62
2021/01/02 08:40:07;;;;;;;11.07;5.10;;;3.20;99.90;;;;;;5096758;28;20434;-63
2021/01/02 08:42:36;;;;;;;11.93;5.20;;;2.90;99.90;;;;;;5094452;28;20721;-63
2021/01/02 08:45:07;;;;;;;10.35;4.57;;;2.80;99.90;;;;;;5090171;28;20435;-63
2021/01/02 08:47:35;;;;;;;9.50;4.70;;;2.80;99.90;;;;;;5083604;28;20456;-63
2021/01/02 08:50:10;;;;;;;9.40;3.97;;;3.00;99.90;;;;;;5094971;28;20426;-63
2021/01/02 08:52:37;;;;;;;10.02;4.32;;;3.20;99.90;;;;;;5094216;28;20512;-63
2021/01/02 08:55:12;;;;;;;10.60;3.57;;;3.30;99.90;;;;;;5095038;28;20557;-63
2021/01/02 08:57:47;;;;;;;9.50;4.20;;;3.30;99.90;;;;;;5086656;28;20433;-62
2021/01/02 09:00:19;;;;;;;8.13;3.30;;;3.40;99.90;;;;;;5094294;28;20841;-63
2021/01/02 09:02:48;;;;;;;7.90;3.92;;;3.60;99.90;;;;;;5095042;28;20432;-64
2021/01/02 09:05:16;;;;;;;7.82;3.53;;;3.80;99.90;;;;;;5095068;28;20421;-61
2021/01/02 09:07:54;;;;;;;10.60;3.63;;;4.10;99.90;;;;;;5095174;28;20512;-63
2021/01/02 09:10:25;;;;;;;10.30;4.75;;;4.40;99.90;;;;;;5095971;28;20786;-63
2021/01/02 09:13:11;;;;;;;8.88;4.30;;;4.50;99.90;;;;;;5095130;28;20437;-64
2021/01/02 09:15:49;;;;;;;9.37;4.43;;;4.50;99.90;;;;;;5094774;28;20608;-63
2021/01/02 09:18:18;;;;;;;7.82;4.65;;;4.20;99.90;;;;;;5094694;28;20524;-63
2021/01/02 09:20:45;;;;;;;9.60;4.07;;;3.90;99.90;;;;;;5094960;28;20901;-63
2021/01/02 09:23:12;;;;;;;7.50;3.10;;;3.90;99.90;;;;;;5094716;28;20781;-63
2021/01/02 09:25:40;;;;;;;6.95;3.10;;;3.70;99.90;;;;;;5094293;28;20424;-63
2021/01/02 09:28:15;;;;;;;8.90;3.63;;;3.50;99.90;;;;;;5094061;28;20432;-64
2021/01/02 09:30:43;;;;;;;9.00;4.38;;;3.60;99.90;;;;;;5094848;28;20932;-63
2021/01/02 09:33:10;;;;;;;8.80;3.78;;;3.40;99.90;;;;;;5095143;28;20440;-63
2021/01/02 09:35:38;;;;;;;7.15;3.45;;;3.30;99.90;;;;;;5094696;28;20524;-64
2021/01/02 09:38:05;;;;;;;9.83;3.90;;;3.30;99.90;;;;;;5094676;28;20532;-64
2021/01/02 09:40:35;;;;;;;8.20;4.18;;;3.30;99.90;;;;;;5093910;28;20432;-63
2021/01/02 09:43:02;;;;;;;9.45;3.78;;;3.50;99.90;;;;;;5093362;28;20824;-64
2021/01/02 09:45:29;;;;;;;7.90;3.67;;;3.80;99.90;;;;;;5093800;28;20432;-63
2021/01/02 09:47:56;;;;;;;9.13;4.30;;;3.60;99.90;;;;;;5094250;28;20438;-64
2021/01/02 09:50:23;;;;;;;8.88;4.35;;;3.60;99.90;;;;;;5092884;28;20509;-63
2021/01/02 09:52:50;;;;;;;8.35;3.85;;;3.50;99.90;;;;;;5093042;28;20426;-63
2021/01/02 09:55:17;;;;;;;9.20;4.30;;;3.30;99.90;;;;;;5092413;28;20532;-63
2021/01/02 09:57:47;;;;;;;8.23;3.97;;;3.50;99.90;;;;;;5091091;28;20502;-63
2021/01/02 10:00:15;;;;;;;7.03;3.90;;;3.40;99.90;;;;;;5092437;28;20449;-63
2021/01/02 10:02:43;;;;;;;7.82;3.30;;;3.60;99.90;;;;;;5089394;28;20438;-64
2021/01/02 10:05:13;;;;;;;9.02;4.13;;;3.50;99.90;;;;;;5088987;28;20453;-64
2021/01/02 10:07:40;;;;;;;8.10;3.60;;;3.50;99.90;;;;;;5091513;28;20450;-63
2021/01/02 10:10:08;;;;;;;6.32;3.40;;;3.50;99.90;;;;;;5092740;28;20422;-64
2021/01/02 10:12:35;;;;;;;7.25;3.60;;;3.60;99.90;;;;;;5084371;28;20429;-64
2021/01/02 10:15:03;;;;;;;7.63;3.58;;;3.70;99.90;;;;;;5092272;28;20477;-63
2021/01/02 10:17:30;;;;;;;5.80;3.23;;;3.90;99.90;;;;;;5092431;28;20444;-63
2021/01/02 10:19:58;;;;;;;6.47;3.33;;;3.90;99.90;;;;;;5093551;28;20517;-63
2021/01/02 10:22:25;;;;;;;6.40;3.20;;;4.00;99.90;;;;;;5093156;28;20430;-63
2021/01/02 10:24:53;;;;;;;6.60;3.17;;;4.30;99.90;;;;;;5091674;28;20430;-64
2021/01/02 10:27:21;;;;;;;9.77;4.63;;;4.60;99.90;;;;;;5092352;28;20520;-63
2021/01/02 10:29:54;;;;;;;7.07;3.85;;;4.50;99.90;;;;;;5091518;28;20576;-64
2021/01/02 10:32:23;;;;;;;5.95;3.03;;;4.10;99.90;;;;;;5083792;28;20517;-65
2021/01/02 10:34:50;;;;;;;7.37;3.33;;;4.10;99.90;;;;;;5093789;28;20739;-64
2021/01/02 10:37:19;;;;;;;5.75;2.53;;;4.10;99.90;;;;;;5086903;28;20525;-63
2021/01/02 10:39:46;;;;;;;5.97;3.00;;;4.40;99.90;;;;;;5092544;28;20968;-64
2021/01/02 10:42:15;;;;;;;6.03;3.05;;;4.40;99.90;;;;;;5092846;28;20856;-64
2021/01/02 10:44:44;;;;;;;8.05;3.50;;;4.40;99.90;;;;;;5092881;28;20434;-64
2021/01/02 10:47:12;;;;;;;7.05;2.97;;;4.20;99.90;;;;;;5092015;28;20425;-63
2021/01/02 10:49:41;;;;;;;6.38;2.72;;;4.20;99.90;;;;;;5094137;28;20420;-63
2021/01/02 10:52:08;;;;;;;6.82;3.60;;;4.10;99.90;;;;;;5094027;28;20521;-63
2021/01/02 10:54:36;;;;;;;5.32;2.63;;;4.40;99.90;;;;;;5085363;28;20433;-63
2021/01/02 10:57:03;;;;;;;5.57;2.55;;;4.50;99.90;;;;;;5090921;28;20799;-63
2021/01/02 10:59:29;;;;;;;7.85;3.80;;;4.90;99.90;;;;;;5092565;28;20532;-64
2021/01/02 11:01:56;;;;;;;7.55;3.92;;;4.90;99.90;;;;;;5087799;28;20944;-61
2021/01/02 11:04:27;;;;;;;5.50;2.35;;;4.90;99.90;;;;;;5074371;28;20442;-62
2021/01/02 11:06:55;;;;;;;3.92;2.33;;;4.50;99.90;;;;;;5090358;28;20429;-64
2021/01/02 11:09:24;;;;;;;5.30;2.30;;;4.20;99.90;;;;;;5087827;28;20437;-63
2021/01/02 11:11:52;;;;;;;5.53;2.73;;;4.00;99.90;;;;;;5071553;28;20435;-63
2021/01/02 11:14:20;;;;;;;6.82;2.95;;;4.20;99.90;;;;;;5087947;28;20845;-63
2021/01/02 11:16:48;;;;;;;5.95;2.50;;;4.50;99.90;;;;;;5090759;28;20430;-63
2021/01/02 11:19:17;;;;;;;5.53;2.72;;;4.50;99.90;;;;;;5084462;28;20854;-62
2021/01/02 11:21:46;;;;;;;5.00;2.05;;;4.60;99.90;;;;;;5087377;28;20430;-60
2021/01/02 11:24:15;;;;;;;5.30;3.00;;;4.90;99.90;;;;;;5088035;28;20524;-61
2021/01/02 11:26:45;;;;;;;5.38;2.10;;;5.10;99.90;;;;;;5086203;28;20930;-65
2021/01/02 11:29:15;;;;;;;4.68;2.40;;;5.00;99.90;;;;;;5092158;28;20501;-60
2021/01/02 11:31:42;;;;;;;3.83;1.92;;;5.10;99.90;;;;;;5091994;28;20453;-60
2021/01/02 11:34:09;;;;;;;4.00;2.10;;;5.20;99.90;;;;;;5091921;28;20600;-61
2021/01/02 11:36:36;;;;;;;5.82;2.45;;;5.40;99.90;;;;;;5090312;28;20741;-61
2021/01/02 11:39:06;;;;;;;6.10;3.20;;;5.50;99.90;;;;;;5090213;28;20470;-60
2021/01/02 11:41:36;;;;;;;6.03;3.20;;;5.40;99.90;;;;;;5089107;28;20459;-62
2021/01/02 11:44:04;;;;;;;6.10;2.42;;;5.30;99.90;;;;;;5088746;28;20428;-61
2021/01/02 11:46:33;;;;;;;5.38;3.50;;;5.10;99.90;;;;;;5089544;28;20516;-62
2021/01/02 11:49:01;;;;;;;5.65;2.40;;;4.80;99.90;;;;;;5089952;28;20835;-63
2021/01/02 11:51:27;;;;;;;7.00;2.75;;;4.60;99.90;;;;;;5090074;28;20513;-63
2021/01/02 11:53:54;;;;;;;4.40;2.67;;;4.20;99.90;;;;;;5090802;28;20912;-61
2021/01/02 11:56:22;;;;;;;5.60;2.92;;;4.10;99.90;;;;;;5094790;28;20504;-62
2021/01/02 11:58:51;;;;;;;8.30;3.72;;;3.80;99.90;;;;;;5092901;28;20433;-61
2021/01/02 12:01:18;;;;;;;7.32;3.80;;;4.10;99.90;;;;;;5087027;28;20520;-64
2021/01/02 12:03:45;;;;;;;7.57;3.53;;;4.00;99.90;;;;;;5085478;28;20441;-61
2021/01/02 12:06:11;;;;;;;4.65;2.80;;;3.70;99.90;;;;;;5092395;28;20638;-62
2021/01/02 12:08:38;;;;;;;5.18;2.75;;;3.60;99.90;;;;;;5082788;28;20533;-64
2021/01/02 12:11:06;;;;;;;6.93;3.43;;;3.90;99.90;;;;;;5088681;28;20421;-62
2021/01/02 12:13:33;;;;;;;7.55;3.22;;;4.20;99.90;;;;;;5093108;28;20784;-64
2021/01/02 12:16:01;;;;;;;7.88;3.50;;;4.50;99.90;;;;;;5093629;28;20536;-63
2021/01/02 12:18:28;;;;;;;5.78;3.22;;;4.30;99.90;;;;;;5094968;28;20429;-61
2021/01/02 12:20:54;;;;;;;7.47;3.70;;;3.90;99.90;;;;;;5095364;28;20438;-63
2021/01/02 12:23:21;;;;;;;7.20;3.80;;;4.00;99.90;;;;;;5095600;28;20445;-62
2021/01/02 12:25:48;;;;;;;5.85;2.92;;;3.70;99.90;;;;;;5094318;28;20859;-62
2021/01/02 12:28:15;;;;;;;8.30;4.47;;;3.80;99.90;;;;;;5093660;28;20812;-62
2021/01/02 12:30:41;;;;;;;7.90;4.37;;;3.90;99.90;;;;;;5091395;28;20946;-62
2021/01/02 12:33:09;;;;;;;6.82;3.42;;;4.00;99.90;;;;;;5091749;28;20551;-62
2021/01/02 12:35:36;;;;;;;6.68;3.10;;;4.10;99.90;;;;;;5092588;28;20479;-63
2021/01/02 12:38:03;;;;;;;7.47;3.00;;;4.10;99.90;;;;;;5093497;28;20851;-62
2021/01/02 12:40:30;;;;;;;4.80;2.70;;;4.00;99.90;;;;;;5094269;28;20520;-62
2021/01/02 12:42:57;;;;;;;5.68;2.25;;;4.10;99.90;;;;;;5094551;28;20796;-65
2021/01/02 12:45:23;;;;;;;4.93;2.75;;;4.20;99.90;;;;;;5092538;28;20524;-63
2021/01/02 12:47:50;;;;;;;8.05;3.20;;;4.50;99.90;;;;;;5093263;28;20445;-63
2021/01/02 12:50:18;;;;;;;6.30;2.67;;;4.60;99.90;;;;;;5095180;28;20511;-63
2021/01/02 12:52:45;;;;;;;4.97;2.10;;;4.60;99.90;;;;;;5095049;28;20449;-63
2021/01/02 12:55:13;;;;;;;4.80;2.78;;;4.50;99.90;;;;;;5095025;28;20933;-63
2021/01/02 12:57:40;;;;;;;6.37;2.43;;;4.60;99.90;;;;;;5094333;28;20430;-63
2021/01/02 13:00:12;;;;;;;6.20;3.30;;;4.50;99.90;;;;;;5092119;28;20522;-60
2021/01/02 13:02:39;;;;;;;7.35;2.92;;;4.60;99.90;;;;;;5092834;28;20461;-60
2021/01/02 13:05:08;;;;;;;6.03;2.57;;;4.60;99.90;;;;;;5094595;28;20434;-60
2021/01/02 13:07:35;;;;;;;4.68;2.47;;;4.80;99.90;;;;;;5094622;28;20438;-60
2021/01/02 13:10:02;;;;;;;5.97;2.40;;;4.90;99.90;;;;;;5096299;28;20512;-58
2021/01/02 13:12:29;;;;;;;4.05;2.03;;;4.90;99.90;;;;;;5094543;28;20509;-60
2021/01/02 13:14:56;;;;;;;6.47;3.20;;;5.00;99.90;;;;;;5084466;28;20882;-61
2021/01/02 13:17:24;;;;;;;5.47;2.30;;;4.90;99.90;;;;;;5080885;28;20434;-61